Ferry Katsuragi — JI3611 — position and weather

sailwx.info

Track history (hours):
 
Tides and Currents Weather Stations Pressure Air Temp Water Temp Dewpoint Dewpoint Depression Visibility Wind Speed Wind Dir Waves Ship Positions

Ferry Katsuragi

Last reported at 2017-Feb-22 05:29 UTC. Time now 2017-Feb-22 08:29 UTC.
Position N 34°10' E 134°57'.

Length 108 m; draft 4 m.

Type: Passenger vessel. MMSI: 431301245.

Date/timePositionNaut miles runAvg speedWind from/ knotsBaromVisibWave heightAir tempDewpointWater temp
2017-Feb-22 05:29N 34°10' E 134°57'1010.9
2017-Feb-22 04:33N 34°13' E 135°09'6 6.2
2017-Feb-22 03:33N 34°11' E 135°01'6 2.0
2017-Feb-22 00:19N 34°09' E 134°54'1215.9
2017-Feb-21 23:34N 34°13' E 135°08'2 2.2
2017-Feb-21 22:33N 34°13' E 135°05'7 1.8
2017-Feb-21 18:25N 34°10' E 134°57'1011.8
2017-Feb-21 17:34N 34°13' E 135°09'0 0.0
2017-Feb-21 16:34N 34°13' E 135°09'0 0.0
2017-Feb-21 15:33N 34°13' E 135°09'7 7.1
2017-Feb-21 14:33N 34°11' E 135°00'5 1.5
2017-Feb-21 11:07N 34°09' E 134°54'814.7
2017-Feb-21 10:34N 34°12' E 135°04'4 4.0
2017-Feb-21 09:34N 34°13' E 135°08'10 2.3
2017-Feb-21 05:24N 34°09' E 134°58'1011.8
2017-Feb-21 04:33N 34°13' E 135°09'7 7.0
2017-Feb-21 03:34N 34°11' E 135°00'4 1.3
2017-Feb-21 00:17N 34°09' E 134°56'1115.1
2017-Feb-20 23:34N 34°13' E 135°08'2 1.5
2017-Feb-20 22:33N 34°13' E 135°06'10 2.4
2017-Feb-20 18:32N 34°09' E 134°56'1111.6
2017-Feb-20 17:33N 34°13' E 135°09'0 0.0
2017-Feb-20 16:34N 34°13' E 135°09'0 0.0
2017-Feb-20 15:34N 34°13' E 135°09'7 6.5
2017-Feb-20 14:33N 34°10' E 135°01'3 0.8
2017-Feb-20 10:33N 34°12' E 135°05'3 3.4
2017-Feb-20 09:33N 34°13' E 135°09'7 1.7
2017-Feb-20 05:16N 34°11' E 135°00'710.0
2017-Feb-20 04:33N 34°13' E 135°09'6 6.0
2017-Feb-20 03:33N 34°11' E 135°02'2 0.6
2017-Feb-20 00:04N 34°11' E 134°59'815.1
2017-Feb-19 23:34N 34°13' E 135°08'1 1.1
2017-Feb-19 22:33N 34°13' E 135°07'8 2.0
2017-Feb-19 18:24N 34°09' E 134°58'1011.5
2017-Feb-19 17:33N 34°13' E 135°09'0 0.0
2017-Feb-19 16:33N 34°13' E 135°09'0 0.0
2017-Feb-19 15:33N 34°13' E 135°09'6 6.5
2017-Feb-19 14:33N 34°11' E 135°01'2 0.6
2017-Feb-19 10:33N 34°12' E 135°04'4 4.1
2017-Feb-19 09:33N 34°13' E 135°09'7 1.6
2017-Feb-19 05:13N 34°11' E 135°00'710.7
2017-Feb-19 04:33N 34°13' E 135°09'7 6.6
2017-Feb-19 03:33N 34°12' E 135°01'4 1.3
2017-Feb-19 00:14N 34°09' E 134°56'1015.4
2017-Feb-18 23:33N 34°13' E 135°08'2 2.4
2017-Feb-18 22:33N 34°13' E 135°05'9 2.3
2017-Feb-18 18:31N 34°09' E 134°55'1212.6
2017-Feb-18 17:33N 34°13' E 135°09'0 0.0
2017-Feb-18 16:34N 34°13' E 135°09'0 0.0
2017-Feb-18 15:33N 34°13' E 135°09'6 6.0
2017-Feb-18 14:33N 34°12' E 135°02'6 1.6
2017-Feb-18 11:04N 34°09' E 134°56'814.8
2017-Feb-18 10:33N 34°12' E 135°04'4 4.0
2017-Feb-18 09:34N 34°13' E 135°09'11 2.7
2017-Feb-18 05:27N 34°09' E 134°56'1112.3
2017-Feb-18 04:33N 34°13' E 135°09'5 5.4
2017-Feb-18 03:33N 34°12' E 135°02'3 0.9
2017-Feb-18 00:06N 34°11' E 134°59'814.9
2017-Feb-17 23:33N 34°13' E 135°08'2 2.1
2017-Feb-17 22:33N 34°13' E 135°06'8 2.1
2017-Feb-17 18:30N 34°09' E 134°56'1111.6
2017-Feb-17 17:33N 34°13' E 135°09'0 0.0
2017-Feb-17 16:33N 34°13' E 135°09'0 0.0
2017-Feb-17 15:33N 34°13' E 135°09'7 6.7
2017-Feb-17 14:33N 34°11' E 135°01'5 1.5
2017-Feb-17 11:08N 34°09' E 134°55'914.8
2017-Feb-17 10:33N 34°12' E 135°05'3 3.1
2017-Feb-17 09:33N 34°13' E 135°08'8 1.8
2017-Feb-17 05:18N 34°11' E 134°60'810.4
2017-Feb-17 04:34N 34°13' E 135°09'6 6.4
2017-Feb-17 03:33N 34°11' E 135°01'6 1.8
2017-Feb-17 00:20N 34°10' E 134°54'1215.0
2017-Feb-16 23:34N 34°13' E 135°08'2 1.9
2017-Feb-16 22:33N 34°13' E 135°06'9 2.2
2017-Feb-16 18:32N 34°09' E 134°56'1111.7
2017-Feb-16 17:33N 34°13' E 135°09'0 0.0
2017-Feb-16 16:33N 34°13' E 135°09'0 0.0
2017-Feb-16 15:33N 34°13' E 135°09'7 6.7
2017-Feb-16 14:33N 34°10' E 135°01'3 0.8
2017-Feb-16 10:33N 34°12' E 135°04'4 3.9
2017-Feb-16 09:33N 34°13' E 135°09'8 1.8
2017-Feb-16 05:18N 34°12' E 134°59'810.5
2017-Feb-16 04:33N 34°13' E 135°09'6 6.2
2017-Feb-16 03:33N 34°10' E 135°02'4 1.2
2017-Feb-16 00:13N 34°10' E 134°57'1014.6
2017-Feb-15 23:33N 34°13' E 135°08'2 1.6
2017-Feb-15 22:33N 34°13' E 135°06'9 2.3
2017-Feb-15 18:32N 34°09' E 134°56'1111.4
2017-Feb-15 17:34N 34°13' E 135°09'0 0.0
2017-Feb-15 16:34N 34°13' E 135°09'0 0.0
2017-Feb-15 15:34N 34°13' E 135°09'7 7.2
2017-Feb-15 14:33N 34°13' E 134°60'4 0.9
2017-Feb-15 10:34N 34°12' E 135°04'4 3.7
2017-Feb-15 09:34N 34°13' E 135°09'10 2.4
2017-Feb-15 05:27N 34°11' E 134°57'1011.2
2017-Feb-15 04:34N 34°13' E 135°09'7 6.5
2017-Feb-15 03:34N 34°12' E 135°01'5 1.6
2017-Feb-15 00:19N 34°09' E 134°56'1114.2
2017-Feb-14 23:34N 34°13' E 135°08'2 1.8
2017-Feb-14 22:33N 34°13' E 135°06'9 2.2
2017-Feb-14 18:31N 34°09' E 134°56'1111.6
2017-Feb-14 17:33N 34°13' E 135°09'0 0.0
2017-Feb-14 16:33N 34°13' E 135°09'0 0.0
2017-Feb-14 15:33N 34°13' E 135°09'7 6.6
2017-Feb-14 14:33N 34°11' E 135°01'3 0.7
2017-Feb-14 10:34N 34°12' E 135°04'4 4.0
2017-Feb-14 09:34N 34°13' E 135°09'11 2.7
2017-Feb-14 05:33N 34°09' E 134°56'1111.1
2017-Feb-14 04:34N 34°13' E 135°09'6 6.3
2017-Feb-14 03:33N 34°11' E 135°01'6 1.9
2017-Feb-14 00:21N 34°09' E 134°54'1215.2
2017-Feb-13 23:33N 34°13' E 135°08'2 1.9
2017-Feb-13 22:33N 34°13' E 135°06'9 2.3
2017-Feb-13 18:28N 34°09' E 134°56'1112.1
2017-Feb-13 17:34N 34°13' E 135°09'0 0.0
2017-Feb-13 16:33N 34°13' E 135°09'0 0.0
2017-Feb-13 15:33N 34°13' E 135°09'6 6.2
2017-Feb-13 14:33N 34°11' E 135°01'2 0.6
2017-Feb-13 10:33N 34°12' E 135°04'4 4.0
2017-Feb-13 09:33N 34°13' E 135°09'10 2.4
2017-Feb-13 05:27N 34°10' E 134°58'1011.0
2017-Feb-13 04:33N 34°13' E 135°09'6 6.2
2017-Feb-13 03:34N 34°12' E 135°01'3 1.0
2017-Feb-13 00:12N 34°10' E 134°58'914.5
2017-Feb-12 23:33N 34°13' E 135°09'2 1.8
2017-Feb-12 22:33N 34°13' E 135°06'9 2.3
2017-Feb-12 18:32N 34°09' E 134°56'1111.3
2017-Feb-12 17:34N 34°13' E 135°09'0 0.0
2017-Feb-12 16:34N 34°13' E 135°09'0 0.0
2017-Feb-12 15:33N 34°13' E 135°09'6 6.5
2017-Feb-12 14:33N 34°11' E 135°01'3 0.7
2017-Feb-12 10:33N 34°12' E 135°04'4 3.8
2017-Feb-12 09:33N 34°13' E 135°09'11 2.7
2017-Feb-12 05:30N 34°09' E 134°56'  
Track history (hours):
 
Tides and Currents Weather Stations Pressure Air Temp Water Temp Dewpoint Dewpoint Depression Visibility Wind Speed Wind Dir Waves Ship Positions

Ferry Katsuragi

Last reported at 2017-Feb-22 05:29 UTC. Time now 2017-Feb-22 08:29 UTC.
Position N 34°10' E 134°57'.

Length 108 m; draft 4 m.

Type: Passenger vessel. MMSI: 431301245.

Date/timePositionNaut miles runAvg speedWind from/ knotsBaromVisibWave heightAir tempDewpointWater temp
2017-Feb-22 05:29N 34°10' E 134°57'1010.9
2017-Feb-22 04:33N 34°13' E 135°09'6 6.2
2017-Feb-22 03:33N 34°11' E 135°01'6 2.0
2017-Feb-22 00:19N 34°09' E 134°54'1215.9
2017-Feb-21 23:34N 34°13' E 135°08'2 2.2
2017-Feb-21 22:33N 34°13' E 135°05'7 1.8
2017-Feb-21 18:25N 34°10' E 134°57'1011.8
2017-Feb-21 17:34N 34°13' E 135°09'0 0.0
2017-Feb-21 16:34N 34°13' E 135°09'0 0.0
2017-Feb-21 15:33N 34°13' E 135°09'7 7.1
2017-Feb-21 14:33N 34°11' E 135°00'5 1.5
2017-Feb-21 11:07N 34°09' E 134°54'814.7
2017-Feb-21 10:34N 34°12' E 135°04'4 4.0
2017-Feb-21 09:34N 34°13' E 135°08'10 2.3
2017-Feb-21 05:24N 34°09' E 134°58'1011.8
2017-Feb-21 04:33N 34°13' E 135°09'7 7.0
2017-Feb-21 03:34N 34°11' E 135°00'4 1.3
2017-Feb-21 00:17N 34°09' E 134°56'1115.1
2017-Feb-20 23:34N 34°13' E 135°08'2 1.5
2017-Feb-20 22:33N 34°13' E 135°06'10 2.4
2017-Feb-20 18:32N 34°09' E 134°56'1111.6
2017-Feb-20 17:33N 34°13' E 135°09'0 0.0
2017-Feb-20 16:34N 34°13' E 135°09'0 0.0
2017-Feb-20 15:34N 34°13' E 135°09'7 6.5
2017-Feb-20 14:33N 34°10' E 135°01'3 0.8
2017-Feb-20 10:33N 34°12' E 135°05'3 3.4
2017-Feb-20 09:33N 34°13' E 135°09'7 1.7
2017-Feb-20 05:16N 34°11' E 135°00'710.0
2017-Feb-20 04:33N 34°13' E 135°09'6 6.0
2017-Feb-20 03:33N 34°11' E 135°02'2 0.6
2017-Feb-20 00:04N 34°11' E 134°59'815.1
2017-Feb-19 23:34N 34°13' E 135°08'1 1.1
2017-Feb-19 22:33N 34°13' E 135°07'8 2.0
2017-Feb-19 18:24N 34°09' E 134°58'1011.5
2017-Feb-19 17:33N 34°13' E 135°09'0 0.0
2017-Feb-19 16:33N 34°13' E 135°09'0 0.0
2017-Feb-19 15:33N 34°13' E 135°09'6 6.5
2017-Feb-19 14:33N 34°11' E 135°01'2 0.6
2017-Feb-19 10:33N 34°12' E 135°04'4 4.1
2017-Feb-19 09:33N 34°13' E 135°09'7 1.6
2017-Feb-19 05:13N 34°11' E 135°00'710.7
2017-Feb-19 04:33N 34°13' E 135°09'7 6.6
2017-Feb-19 03:33N 34°12' E 135°01'4 1.3
2017-Feb-19 00:14N 34°09' E 134°56'1015.4
2017-Feb-18 23:33N 34°13' E 135°08'2 2.4
2017-Feb-18 22:33N 34°13' E 135°05'9 2.3
2017-Feb-18 18:31N 34°09' E 134°55'1212.6
2017-Feb-18 17:33N 34°13' E 135°09'0 0.0
2017-Feb-18 16:34N 34°13' E 135°09'0 0.0
2017-Feb-18 15:33N 34°13' E 135°09'6 6.0
2017-Feb-18 14:33N 34°12' E 135°02'6 1.6
2017-Feb-18 11:04N 34°09' E 134°56'814.8
2017-Feb-18 10:33N 34°12' E 135°04'4 4.0
2017-Feb-18 09:34N 34°13' E 135°09'11 2.7
2017-Feb-18 05:27N 34°09' E 134°56'1112.3
2017-Feb-18 04:33N 34°13' E 135°09'5 5.4
2017-Feb-18 03:33N 34°12' E 135°02'3 0.9
2017-Feb-18 00:06N 34°11' E 134°59'814.9
2017-Feb-17 23:33N 34°13' E 135°08'2 2.1
2017-Feb-17 22:33N 34°13' E 135°06'8 2.1
2017-Feb-17 18:30N 34°09' E 134°56'1111.6
2017-Feb-17 17:33N 34°13' E 135°09'0 0.0
2017-Feb-17 16:33N 34°13' E 135°09'0 0.0
2017-Feb-17 15:33N 34°13' E 135°09'7 6.7
2017-Feb-17 14:33N 34°11' E 135°01'5 1.5
2017-Feb-17 11:08N 34°09' E 134°55'914.8
2017-Feb-17 10:33N 34°12' E 135°05'3 3.1
2017-Feb-17 09:33N 34°13' E 135°08'8 1.8
2017-Feb-17 05:18N 34°11' E 134°60'810.4
2017-Feb-17 04:34N 34°13' E 135°09'6 6.4
2017-Feb-17 03:33N 34°11' E 135°01'6 1.8
2017-Feb-17 00:20N 34°10' E 134°54'1215.0
2017-Feb-16 23:34N 34°13' E 135°08'2 1.9
2017-Feb-16 22:33N 34°13' E 135°06'9 2.2
2017-Feb-16 18:32N 34°09' E 134°56'1111.7
2017-Feb-16 17:33N 34°13' E 135°09'0 0.0
2017-Feb-16 16:33N 34°13' E 135°09'0 0.0
2017-Feb-16 15:33N 34°13' E 135°09'7 6.7
2017-Feb-16 14:33N 34°10' E 135°01'3 0.8
2017-Feb-16 10:33N 34°12' E 135°04'4 3.9
2017-Feb-16 09:33N 34°13' E 135°09'8 1.8
2017-Feb-16 05:18N 34°12' E 134°59'810.5
2017-Feb-16 04:33N 34°13' E 135°09'6 6.2
2017-Feb-16 03:33N 34°10' E 135°02'4 1.2
2017-Feb-16 00:13N 34°10' E 134°57'1014.6
2017-Feb-15 23:33N 34°13' E 135°08'2 1.6
2017-Feb-15 22:33N 34°13' E 135°06'9 2.3
2017-Feb-15 18:32N 34°09' E 134°56'1111.4
2017-Feb-15 17:34N 34°13' E 135°09'0 0.0
2017-Feb-15 16:34N 34°13' E 135°09'0 0.0
2017-Feb-15 15:34N 34°13' E 135°09'7 7.2
2017-Feb-15 14:33N 34°13' E 134°60'4 0.9
2017-Feb-15 10:34N 34°12' E 135°04'4 3.7
2017-Feb-15 09:34N 34°13' E 135°09'10 2.4
2017-Feb-15 05:27N 34°11' E 134°57'1011.2
2017-Feb-15 04:34N 34°13' E 135°09'7 6.5
2017-Feb-15 03:34N 34°12' E 135°01'5 1.6
2017-Feb-15 00:19N 34°09' E 134°56'1114.2
2017-Feb-14 23:34N 34°13' E 135°08'2 1.8
2017-Feb-14 22:33N 34°13' E 135°06'9 2.2
2017-Feb-14 18:31N 34°09' E 134°56'1111.6
2017-Feb-14 17:33N 34°13' E 135°09'0 0.0
2017-Feb-14 16:33N 34°13' E 135°09'0 0.0
2017-Feb-14 15:33N 34°13' E 135°09'7 6.6
2017-Feb-14 14:33N 34°11' E 135°01'3 0.7
2017-Feb-14 10:34N 34°12' E 135°04'4 4.0
2017-Feb-14 09:34N 34°13' E 135°09'11 2.7
2017-Feb-14 05:33N 34°09' E 134°56'1111.1
2017-Feb-14 04:34N 34°13' E 135°09'6 6.3
2017-Feb-14 03:33N 34°11' E 135°01'6 1.9
2017-Feb-14 00:21N 34°09' E 134°54'1215.2
2017-Feb-13 23:33N 34°13' E 135°08'2 1.9
2017-Feb-13 22:33N 34°13' E 135°06'9 2.3
2017-Feb-13 18:28N 34°09' E 134°56'1112.1
2017-Feb-13 17:34N 34°13' E 135°09'0 0.0
2017-Feb-13 16:33N 34°13' E 135°09'0 0.0
2017-Feb-13 15:33N 34°13' E 135°09'6 6.2
2017-Feb-13 14:33N 34°11' E 135°01'2 0.6
2017-Feb-13 10:33N 34°12' E 135°04'4 4.0
2017-Feb-13 09:33N 34°13' E 135°09'10 2.4
2017-Feb-13 05:27N 34°10' E 134°58'1011.0
2017-Feb-13 04:33N 34°13' E 135°09'6 6.2
2017-Feb-13 03:34N 34°12' E 135°01'3 1.0
2017-Feb-13 00:12N 34°10' E 134°58'914.5
2017-Feb-12 23:33N 34°13' E 135°09'2 1.8
2017-Feb-12 22:33N 34°13' E 135°06'9 2.3
2017-Feb-12 18:32N 34°09' E 134°56'1111.3
2017-Feb-12 17:34N 34°13' E 135°09'0 0.0
2017-Feb-12 16:34N 34°13' E 135°09'0 0.0
2017-Feb-12 15:33N 34°13' E 135°09'6 6.5
2017-Feb-12 14:33N 34°11' E 135°01'3 0.7
2017-Feb-12 10:33N 34°12' E 135°04'4 3.8
2017-Feb-12 09:33N 34°13' E 135°09'11 2.7
2017-Feb-12 05:30N 34°09' E 134°56'  

Dump ship's entire track history